Latest Coastal Weather Observations for Aireys Inlet

IDV60701

Issued at 8:02 pm EDT Thursday 21 October 2021 (issued every 10 minutes, with the page automatically refreshed every 10 minutes)

About coastal observations | Map of coastal stations | Coastal observations for VIC | Marine services | Other Formats
Station Details ID: 090180 Name: AIREYS INLET Lat: -38.46 Lon: 144.09 Height: 105.0 m
Data from the previous 72 hours. | See also: Recent months at Aireys Inlet
Date/Time
EDT
Wind Sea
Height
m
Swell Vis
km
Cloud Weather Temp
°C
Press
MSL
hPa
Rain since
9am
mm
Dir  Spd
kts
Gust
kts
Height
m
Period
s
Dir
21/08:00pm NNE 3 4 - - - - - - - 19.4 - -
21/07:30pm NE 3 5 - - - - - - - 20.1 - -
21/07:00pm NNE 5 8 - - - - - - - 20.9 - -
21/06:30pm NNE 9 15 - - - - - - - 21.1 - -
21/06:00pm NNE 8 12 - - - - - - - 21.1 - -
21/05:30pm NNE 9 15 - - - - - - - 20.9 - -
21/05:00pm NNE 8 13 - - - - - - - 21.1 - -
21/04:30pm NNE 6 10 - - - - - - - 21.2 - -
21/04:00pm NNE 5 9 - - - - - - - 21.0 - -
21/03:30pm NNE 8 13 - - - - - - - 20.6 - -
21/03:00pm NNE 7 11 - - - - - - Recent precip. 20.4 - -
21/02:30pm NNE 3 8 - - - - - - - 20.8 - -
21/12:00pm N 11 20 - - - - - - - 21.6 - 0.0
21/11:30am NNE 12 18 - - - - - - - 20.2 - 0.0
21/11:00am NNE 8 16 - - - - - - - 19.6 - 0.0
21/10:30am NNE 6 10 - - - - - - - 18.6 - 0.0
21/10:00am NNE 6 12 - - - - - - - 17.9 - 0.0
21/09:30am NNE 9 16 - - - - - - - 18.1 - 0.0
21/09:00am NNE 9 13 - - - - - - - 16.9 - 0.0
21/08:30am NNE 10 15 - - - - - - - 15.9 - 0.0
21/08:00am NNE 9 15 - - - - - - - 15.2 - 0.0
21/07:30am NNE 10 15 - - - - - - - 14.7 - 0.0
21/07:00am NNE 11 18 - - - - - - - 14.5 - 0.0
21/06:30am NNE 10 17 - - - - - - - 14.2 - 0.0
21/06:00am NNE 8 14 - - - - - - - 13.9 - 0.0
21/05:30am NNE 9 14 - - - - - - - 13.6 - 0.0
21/05:00am NNE 8 12 - - - - - - - 13.3 - 0.0
21/04:30am NNE 8 11 - - - - - - - 13.2 - 0.0
21/04:00am NNE 8 11 - - - - - - - 13.2 - 0.0
21/03:30am NNE 7 10 - - - - - - - 13.0 - 0.0
21/03:00am NNE 6 8 - - - - - - - 12.7 - 0.0
21/02:30am NNE 3 6 - - - - - - - 12.4 - 0.0
21/02:00am NNE 4 6 - - - - - - - 12.6 - 0.0
21/01:30am NNE 3 4 - - - - - - - 12.4 - 0.0
21/01:00am NNE 3 4 - - - - - - - 12.7 - 0.0
21/12:30am N 2 3 - - - - - - - 13.0 - 0.0
21/12:00am NNE 4 6 - - - - - - - 13.5 - 0.0
 
Date/Time
EDT
Wind Sea
Height
m
Swell Vis
km
Cloud Weather Temp
°C
Press
MSL
hPa
Rain since
9am
mm
Dir  Spd
kts
Gust
kts
Height
m
Period
s
Dir
20/11:30pm NE 5 9 - - - - - - - 13.7 - 0.0
20/11:00pm NE 7 11 - - - - - - - 14.1 - 0.0
20/10:30pm NE 8 16 - - - - - - - 14.4 - 0.0
20/10:00pm NE 10 16 - - - - - - - 14.7 - 0.0
20/09:30pm NE 9 19 - - - - - - - 14.9 - 0.0
20/09:00pm NE 4 9 - - - - - - - 14.2 - 0.0
20/08:30pm N 2 3 - - - - - - - 13.9 - 0.0
20/08:00pm ENE 4 8 - - - - - - - 14.2 - 0.0
20/07:30pm ENE 5 10 - - - - - - - 14.5 - 0.0
20/07:00pm E 3 6 - - - - - - - 15.0 - 0.0
20/06:30pm E 3 6 - - - - - - - 15.7 - 0.0
20/06:00pm ESE 4 8 - - - - - - - 16.0 - 0.0
20/05:30pm SSE 4 8 - - - - - - - 16.5 - 0.0
20/05:00pm SE 3 8 - - - - - - - 17.0 - 0.0
20/04:30pm SE 3 5 - - - - - - - 17.7 - 0.0
20/04:00pm SSE 4 6 - - - - - - - 17.8 - 0.0
20/03:30pm SSE 4 7 - - - - - - - 18.5 - 0.0
20/03:00pm SE 5 8 - - - - - - - 17.7 - 0.0
20/02:30pm SSE 5 7 - - - - - - - 17.6 - 0.0
20/02:00pm ESE 6 12 - - - - - - - 17.3 - 0.0
20/01:30pm ENE 8 13 - - - - - - - 18.3 - 0.0
20/01:00pm E 9 13 - - - - - - - 17.1 - 0.0
20/12:30pm E 7 14 - - - - - - - 16.9 - 0.0
20/12:00pm E 8 14 - - - - - - - 17.0 - 0.0
20/11:30am ENE 9 16 - - - - - - - 16.4 - 0.0
20/11:00am ENE 10 16 - - - - - - - 15.6 - 0.0
20/10:30am ENE 10 18 - - - - - - - 15.1 - 0.0
20/10:00am ENE 10 17 - - - - - - - 14.6 - 0.0
20/09:30am ENE 8 14 - - - - - - - 14.1 - 0.0
20/09:00am ENE 10 15 - - - - - - - 12.8 - 0.2
20/08:30am E 9 17 - - - - - - - 13.0 - 0.2
20/08:00am E 9 15 - - - - - - - 12.9 - 0.2
20/07:30am E 8 15 - - - - - - - 12.5 - 0.2
20/07:00am E 10 17 - - - - - - - 11.7 - 0.2
20/06:30am E 9 15 - - - - - - - 11.4 - 0.2
20/06:00am E 9 17 - - - - - - - 11.4 - 0.2
20/05:30am E 7 11 - - - - - - - 11.3 - 0.2
20/05:00am E 6 9 - - - - - - - 11.5 - 0.2
20/04:30am E 7 12 - - - - - - - 11.4 - 0.2
20/04:00am E 6 10 - - - - - - - 11.4 - 0.2
20/03:30am E 7 13 - - - - - - - 11.4 - 0.2
20/03:00am E 6 10 - - - - - - - 11.4 - 0.2
20/02:30am E 7 12 - - - - - - - 11.5 - 0.2
20/02:00am E 8 12 - - - - - - - 11.6 - 0.2
20/01:30am E 10 17 - - - - - - - 11.8 - 0.2
20/01:00am E 11 19 - - - - - - - 11.9 - 0.2
20/12:30am E 9 19 - - - - - - - 12.0 - 0.2
20/12:00am E 10 18 - - - - - - - 11.9 - 0.2
 
Date/Time
EDT
Wind Sea
Height
m
Swell Vis
km
Cloud Weather Temp
°C
Press
MSL
hPa
Rain since
9am
mm
Dir  Spd
kts
Gust
kts
Height
m
Period
s
Dir
19/11:30pm E 10 18 - - - - - - - 12.0 - 0.2
19/11:00pm E 11 17 - - - - - - - 12.3 - 0.2
19/10:30pm E 8 15 - - - - - - - 12.2 - 0.2
19/10:00pm E 8 14 - - - - - - - 12.4 - 0.2
19/09:30pm ESE 7 11 - - - - - - - 12.4 - 0.2
19/09:00pm ESE 7 11 - - - - - - - 12.3 - 0.2
19/08:30pm ESE 8 14 - - - - - - - 12.2 - 0.2
19/08:00pm SE 6 11 - - - - - - - 12.2 - 0.2
19/07:30pm SE 8 13 - - - - - - - 12.2 - 0.2
19/07:00pm SE 7 12 - - - - - - - 12.3 - 0.2
19/06:30pm SE 7 13 - - - - - - - 12.3 - 0.2
19/06:00pm SE 7 11 - - - - - - - 12.9 - 0.2
19/05:30pm ESE 8 14 - - - - - - - 13.2 - 0.2
19/05:00pm ESE 8 13 - - - - - - - 13.1 - 0.2
19/04:30pm ESE 7 14 - - - - - - - 14.0 - 0.2
19/04:00pm SE 8 12 - - - - - - - 14.8 - 0.2
19/03:30pm SE 7 11 - - - - - - - 14.3 - 0.2
19/03:00pm SE 6 11 - - - - - - - 14.6 - 0.2
19/02:30pm SE 6 10 - - - - - - - 13.6 - 0.2
19/02:00pm SSW 7 11 - - - - - - - 13.6 - 0.2
19/01:30pm S 8 12 - - - - - - - 12.9 - 0.2
19/01:00pm SSW 10 15 - - - - - - - 13.1 - 0.2
19/12:30pm S 11 17 - - - - - - - 13.7 - 0.2
19/12:00pm SSW 11 18 - - - - - - Recent precip. 12.6 - 0.2
19/11:30am SSW 12 18 - - - - - - - 11.8 - 0.0
19/11:00am SSW 13 20 - - - - - - - 12.0 - 0.0
19/10:30am SSW 13 20 - - - - - - - 13.0 - 0.0
19/10:00am SW 14 21 - - - - - - - 11.4 - 0.0
19/09:30am SSW 15 22 - - - - - - - 11.4 - 0.0
19/09:00am SSW 15 23 - - - - - - - 11.2 - 1.0
19/08:30am SW 14 22 - - - - - - - 11.3 - 1.0
19/08:00am SSW 14 22 - - - - - - - 11.1 - 1.0
19/07:30am SSW 13 20 - - - - - - - 10.8 - 1.0
19/07:00am S 11 19 - - - - - - - 10.7 - 1.0
19/06:30am S 10 15 - - - - - - - 10.7 - 1.0
19/06:00am S 11 18 - - - - - - - 10.3 - 1.0
19/05:30am S 9 15 - - - - - - - 10.4 - 1.0
19/05:00am S 10 15 - - - - - - - 10.6 - 1.0
19/04:30am S 12 17 - - - - - - - 10.6 - 1.0
19/04:00am SSW 12 19 - - - - - - - 10.6 - 1.0
19/03:30am SSW 13 20 - - - - - - - 10.4 - 1.0
19/03:00am SSW 8 13 - - - - - - - 10.0 - 1.0
19/02:30am WSW 6 8 - - - - - - - 9.2 - 1.0
19/02:00am SW 7 11 - - - - - - - 9.5 - 1.0
19/01:30am WSW 10 17 - - - - - - - 9.9 - 1.0
19/01:00am W 8 10 - - - - - - - 9.3 - 1.0
19/12:30am W 7 9 - - - - - - - 9.3 - 1.0
19/12:00am W 6 8 - - - - - - - 9.4 - 1.0
 
Date/Time
EDT
Wind Sea
Height
m
Swell Vis
km
Cloud Weather Temp
°C
Press
MSL
hPa
Rain since
9am
mm
Dir  Spd
kts
Gust
kts
Height
m
Period
s
Dir
18/11:30pm WSW 7 10 - - - - - - - 9.8 - 1.0
18/11:00pm WSW 6 8 - - - - - - - 9.5 - 1.0
18/10:30pm WSW 8 10 - - - - - - - 10.1 - 1.0
18/10:00pm WSW 8 10 - - - - - - - 10.0 - 1.0
18/09:30pm WSW 9 11 - - - - - - - 10.2 - 1.0
18/09:00pm WSW 8 11 - - - - - - - 10.4 - 1.0
18/08:30pm SW 8 12 - - - - - - - 10.5 - 1.0

Other formats

Comma delimited format used in spreadsheet applications
http://www.bom.gov.au/fwo/IDV60701/IDV60701.94846.axf

JavaScript Object Notation format (JSON) in row-major order
http://www.bom.gov.au/fwo/IDV60701/IDV60701.94846.json

Data quality

Most of these data are generated automatically and are frequently updated. Quality checks on data are not normally performed. It is possible for incorrect values to appear. Refer to information at About Latest Weather Observations and please check the disclaimer before using these data.